Time;durP1;ratioP1;P1;durP2;ratioP2;P2;SDS_P1;SDS_P2;PMS_P1;PMS_P2;Temp;Humidity;BMP_temperature;BMP_pressure;BME280_temperature;BME280_humidity;BME280_pressure;Samples;Min_cycle;Max_cycle;Signal;HPM_P1;HPM_P2
2022/11/16 00:00:22;;;;;;;1.50;1.40;;;;;;;10.97;100.00;97183.50;4138096;28;20212;-48
2022/11/16 00:02:24;;;;;;;5.07;1.30;;;;;;;10.93;100.00;97187.09;4139380;28;20296;-49
2022/11/16 00:04:25;;;;;;;1.60;1.50;;;;;;;10.95;100.00;97191.19;4130839;28;20229;-49
2022/11/16 00:06:27;;;;;;;1.63;1.52;;;;;;;10.94;100.00;97191.47;4140357;28;20201;-48
2022/11/16 00:08:31;;;;;;;1.48;1.38;;;;;;;10.95;100.00;97182.97;4137523;28;20236;-50
2022/11/16 00:10:33;;;;;;;1.63;1.52;;;;;;;10.90;100.00;97185.75;4141689;28;20244;-48
2022/11/16 00:12:35;;;;;;;1.35;1.30;;;;;;;10.89;100.00;97181.38;4140573;28;20221;-49
2022/11/16 00:14:37;;;;;;;1.58;1.33;;;;;;;10.91;100.00;97179.16;4138930;28;20263;-49
2022/11/16 00:16:39;;;;;;;2.33;1.52;;;;;;;10.94;100.00;97178.63;4135497;28;20216;-49
2022/11/16 00:18:41;;;;;;;1.60;1.50;;;;;;;10.93;100.00;97182.47;4150456;28;20228;-49
2022/11/16 00:20:43;;;;;;;2.65;1.40;;;;;;;10.88;100.00;97178.91;4132129;28;20821;-48
2022/11/16 00:22:44;;;;;;;2.17;2.08;;;;;;;10.92;100.00;97175.31;4139787;28;20243;-49
2022/11/16 00:24:46;;;;;;;1.42;1.33;;;;;;;10.88;100.00;97166.06;4140989;28;20209;-48
2022/11/16 00:26:49;;;;;;;1.48;1.38;;;;;;;10.99;100.00;97156.69;4138660;28;20213;-49
2022/11/16 00:28:52;;;;;;;1.77;1.67;;;;;;;10.93;100.00;97152.34;4131470;28;20822;-48
2022/11/16 00:31:00;;;;;;;2.03;1.83;;;;;;;10.91;100.00;97154.53;4136235;28;20197;-49
2022/11/16 00:33:03;;;;;;;1.48;1.38;;;;;;;10.94;100.00;97150.41;4116717;28;20704;-49
2022/11/16 00:35:05;;;;;;;1.40;1.38;;;;;;;10.95;100.00;97152.88;4130628;28;20201;-49
2022/11/16 00:37:06;;;;;;;1.02;1.02;;;;;;;11.00;100.00;97154.75;4139627;28;20750;-49
2022/11/16 00:39:13;;;;;;;1.30;1.20;;;;;;;10.96;100.00;97149.03;4127191;28;20206;-49
2022/11/16 00:41:14;;;;;;;3.80;1.10;;;;;;;10.98;100.00;97146.81;4141559;28;20213;-49
2022/11/16 00:43:16;;;;;;;1.58;1.48;;;;;;;10.96;100.00;97143.56;4140628;28;20603;-49
2022/11/16 00:45:18;;;;;;;1.33;1.27;;;;;;;10.99;100.00;97142.16;4132723;28;20751;-50
2022/11/16 00:47:21;;;;;;;1.48;1.38;;;;;;;10.98;100.00;97146.81;4137798;28;20221;-49
2022/11/16 00:49:22;;;;;;;1.40;1.30;;;;;;;10.98;100.00;97141.34;4127877;28;20572;-50
2022/11/16 00:51:24;;;;;;;1.30;1.27;;;;;;;10.98;100.00;97141.34;4138744;28;20205;-49
2022/11/16 00:53:29;;;;;;;0.80;0.80;;;;;;;10.96;100.00;97138.09;4135796;28;20313;-49
2022/11/16 00:55:31;;;;;;;1.85;1.38;;;;;;;10.97;100.00;97139.72;4136709;28;20690;-49
2022/11/16 00:57:35;;;;;;;1.55;1.42;;;;;;;10.95;100.00;97136.47;4134690;28;20206;-48
2022/11/16 00:59:36;;;;;;;1.48;1.38;;;;;;;10.98;100.00;97127.66;4131233;28;20198;-48
2022/11/16 01:01:38;;;;;;;1.17;1.05;;;;;;;10.96;100.00;97132.59;4132062;28;20328;-48
2022/11/16 01:03:40;;;;;;;1.45;1.30;;;;;;;10.90;100.00;97133.75;4129324;28;20850;-49
2022/11/16 01:05:41;;;;;;;1.25;1.15;;;;;;;10.95;100.00;97136.47;4137207;28;20213;-48
2022/11/16 01:07:43;;;;;;;1.40;0.95;;;;;;;10.92;100.00;97131.53;4138171;28;20218;-49
2022/11/16 01:09:45;;;;;;;1.10;1.00;;;;;;;10.94;100.00;97140.28;4137107;28;20217;-48
2022/11/16 01:14:07;;;;;;;0.95;0.93;;;;;;;10.89;100.00;97137.59;4135559;28;20320;-49
2022/11/16 01:16:13;;;;;;;1.05;1.05;;;;;;;10.93;100.00;97127.72;4150563;28;20205;-50
2022/11/16 01:18:15;;;;;;;1.20;1.15;;;;;;;10.91;100.00;97135.38;4137428;28;20232;-49
2022/11/16 01:20:19;;;;;;;1.20;1.10;;;;;;;10.98;100.00;97132.34;4135835;28;20212;-49
2022/11/16 01:22:20;;;;;;;0.98;0.98;;;;;;;10.92;100.00;97142.47;4140314;28;20205;-49
2022/11/16 01:24:24;;;;;;;1.30;0.85;;;;;;;10.93;100.00;97138.66;4133924;28;20252;-50
2022/11/16 01:26:25;;;;;;;1.42;1.23;;;;;;;10.92;100.00;97147.16;4137767;28;20202;-49
2022/11/16 01:28:28;;;;;;;1.00;1.00;;;;;;;11.00;100.00;97144.63;4148302;28;20239;-49
2022/11/16 01:30:30;;;;;;;1.02;1.02;;;;;;;10.97;100.00;97156.13;4134162;28;20217;-49
2022/11/16 01:32:33;;;;;;;2.33;1.27;;;;;;;10.93;100.00;97154.25;4137201;28;20237;-49
2022/11/16 01:34:35;;;;;;;1.05;1.05;;;;;;;10.94;100.00;97169.56;4134832;28;20214;-48
2022/11/16 01:36:36;;;;;;;1.50;1.40;;;;;;;10.97;100.00;97174.50;4136644;28;20571;-49
2022/11/16 01:38:42;;;;;;;1.33;1.20;;;;;;;10.94;100.00;97172.31;4146377;28;20210;-49
2022/11/16 01:40:44;;;;;;;1.00;1.00;;;;;;;10.90;100.00;97177.53;4150365;28;20667;-49
2022/11/16 01:42:46;;;;;;;0.90;0.90;;;;;;;10.90;100.00;97177.53;4134831;28;20272;-49
2022/11/16 01:44:48;;;;;;;1.30;1.20;;;;;;;11.01;100.00;97175.53;4134055;28;20202;-49
2022/11/16 01:46:49;;;;;;;0.95;0.95;;;;;;;10.98;100.00;97174.19;4131356;28;20213;-50
2022/11/16 01:49:15;;;;;;;1.25;1.10;;;;;;;10.96;100.00;97170.94;4140456;28;20233;-49
2022/11/16 01:51:17;;;;;;;1.00;1.00;;;;;;;10.93;100.00;97171.50;4123167;28;20233;-49
2022/11/16 01:53:19;;;;;;;0.98;0.98;;;;;;;10.97;100.00;97167.09;4136871;28;20229;-49
2022/11/16 01:55:21;;;;;;;0.98;0.98;;;;;;;10.93;100.00;97166.03;4116152;28;20712;-49
2022/11/16 01:57:27;;;;;;;1.45;1.35;;;;;;;10.93;100.00;97168.78;4134920;28;20201;-49
2022/11/16 01:59:29;;;;;;;1.17;1.10;;;;;;;10.95;100.00;97172.03;4134803;28;20207;-49
2022/11/16 02:01:30;;;;;;;1.23;1.10;;;;;;;10.99;100.00;97162.16;4133001;28;20201;-49
2022/11/16 02:03:36;;;;;;;1.05;1.00;;;;;;;11.06;100.00;97165.38;4129474;28;20256;-49
2022/11/16 02:06:06;;;;;;;1.30;1.23;;;;;;;11.03;100.00;97170.63;4134247;28;20694;-49
2022/11/16 02:11:24;;;;;;;0.90;0.90;;;;;;;10.96;100.00;97165.44;4134537;28;20206;-49
2022/11/16 02:13:38;;;;;;;0.93;0.93;;;;;;;11.03;100.00;97165.94;4149601;28;20594;-49
2022/11/16 02:16:05;;;;;;;0.93;0.93;;;;;;;10.99;100.00;97166.81;4131536;28;20682;-49
2022/11/16 02:18:15;;;;;;;0.82;0.82;;;;;;;10.94;100.00;97169.56;4113120;28;20201;-49
2022/11/16 02:20:35;;;;;;;0.90;0.90;;;;;;;10.96;100.00;97167.34;4149139;28;20201;-50
2022/11/16 02:22:54;;;;;;;0.73;0.73;;;;;;;10.93;100.00;97162.47;4129598;28;20217;-48
2022/11/16 02:25:15;;;;;;;1.10;1.00;;;;;;;10.91;100.00;97161.94;4133297;28;20235;-48
2022/11/16 02:27:47;;;;;;;1.80;0.90;;;;;;;11.01;100.00;97162.69;4136904;28;20300;-49
2022/11/16 02:29:53;;;;;;;0.75;0.75;;;;;;;11.00;100.00;97158.31;4131642;28;20236;-49
2022/11/16 02:32:07;;;;;;;1.00;1.00;;;;;;;10.92;100.00;97164.38;4133386;28;20205;-48
2022/11/16 02:34:10;;;;;;;0.70;0.70;;;;;;;10.95;100.00;97158.34;4120651;28;20206;-50
2022/11/16 02:36:15;;;;;;;1.85;1.10;;;;;;;10.86;100.00;97153.75;4153454;28;20211;-49
2022/11/16 02:38:21;;;;;;;1.27;1.17;;;;;;;11.00;100.00;97147.38;4122841;28;20325;-49
2022/11/16 02:40:25;;;;;;;1.00;1.00;;;;;;;10.91;100.00;97140.84;4140065;28;20655;-48
2022/11/16 02:42:34;;;;;;;1.38;1.25;;;;;;;10.91;100.00;97129.09;4127978;28;20206;-49
2022/11/16 02:44:39;;;;;;;0.70;0.70;;;;;;;10.87;100.00;97116.28;4141484;28;21962;-48
2022/11/16 02:46:43;;;;;;;1.35;1.25;;;;;;;10.84;100.00;97118.47;4141252;28;20664;-48
2022/11/16 02:48:48;;;;;;;1.30;1.20;;;;;;;10.87;100.00;97121.75;4140813;28;20260;-49
2022/11/16 02:50:52;;;;;;;1.10;1.10;;;;;;;10.81;100.00;97123.69;4139185;28;21503;-48
2022/11/16 02:52:55;;;;;;;1.00;1.00;;;;;;;10.81;100.00;97133.84;4141428;28;20296;-52
2022/11/16 02:54:57;;;;;;;0.80;0.80;;;;;;;10.87;100.00;97138.19;4120835;28;20210;-49
2022/11/16 02:57:01;;;;;;;1.10;1.10;;;;;;;10.90;100.00;97150.16;4138015;28;20201;-49
2022/11/16 02:59:03;;;;;;;0.93;0.93;;;;;;;10.91;100.00;97138.13;4137441;28;20203;-50
2022/11/16 03:01:12;;;;;;;0.90;0.90;;;;;;;10.83;100.00;97127.78;4140093;28;20216;-48
2022/11/16 03:03:19;;;;;;;0.70;0.70;;;;;;;10.84;100.00;97148.56;4139949;28;20220;-49
2022/11/16 03:05:31;;;;;;;0.77;0.73;;;;;;;10.75;100.00;97154.94;4135683;28;20245;-48
2022/11/16 03:07:39;;;;;;;1.08;0.90;;;;;;;10.79;100.00;97154.06;4140206;28;20292;-49
2022/11/16 03:09:42;;;;;;;1.10;1.00;;;;;;;10.82;100.00;97157.38;4140978;28;20308;-49
2022/11/16 03:11:58;;;;;;;1.08;1.08;;;;;;;10.78;100.00;97162.59;4152186;28;20263;-49
2022/11/16 03:14:03;;;;;;;1.13;1.05;;;;;;;10.75;100.00;97178.75;4141520;28;20232;-48
2022/11/16 03:16:16;;;;;;;1.20;1.10;;;;;;;10.77;100.00;97165.59;4139142;28;20198;-48
2022/11/16 03:18:19;;;;;;;1.20;1.10;;;;;;;10.82;100.00;97169.94;4139724;28;20212;-48
2022/11/16 03:20:25;;;;;;;0.95;0.95;;;;;;;10.78;100.00;97160.66;4140405;28;20202;-48
2022/11/16 03:22:32;;;;;;;1.25;1.15;;;;;;;10.82;100.00;97168.31;4141921;28;20233;-48
2022/11/16 03:24:34;;;;;;;1.80;1.10;;;;;;;10.77;100.00;97161.75;4137192;28;20288;-49
2022/11/16 03:27:06;;;;;;;1.15;0.90;;;;;;;10.80;100.00;97143.97;4120173;28;20202;-48
2022/11/16 03:29:14;;;;;;;1.13;1.10;;;;;;;10.79;100.00;97151.34;4139244;28;20221;-48
2022/11/16 03:31:26;;;;;;;0.93;0.93;;;;;;;10.74;100.00;97149.78;4152681;28;20248;-48
2022/11/16 03:33:35;;;;;;;0.90;0.90;;;;;;;10.79;100.00;97154.06;4138644;28;20231;-48
2022/11/16 03:35:54;;;;;;;0.88;0.88;;;;;;;10.81;100.00;97155.72;4137310;28;20304;-48
2022/11/16 03:37:57;;;;;;;1.75;0.90;;;;;;;10.77;100.00;97165.59;4153415;28;20207;-48
2022/11/16 03:40:00;;;;;;;2.05;0.70;;;;;;;10.79;100.00;97165.03;4134278;28;20209;-49
2022/11/16 03:42:03;;;;;;;0.90;0.90;;;;;;;10.88;100.00;97172.66;4122319;28;20218;-48
2022/11/16 03:44:07;;;;;;;0.98;0.88;;;;;;;10.78;100.00;97179.81;4141005;28;20217;-48
2022/11/16 03:46:09;;;;;;;0.80;0.80;;;;;;;10.85;100.00;97183.03;4151564;28;20238;-48
2022/11/16 03:48:11;;;;;;;0.93;0.93;;;;;;;10.76;100.00;97177.66;4131046;28;20230;-49
2022/11/16 03:50:13;;;;;;;0.60;0.60;;;;;;;10.78;100.00;97174.34;4117559;28;20210;-49
2022/11/16 03:52:16;;;;;;;0.60;0.60;;;;;;;10.78;100.00;97181.75;4130947;28;20201;-49
2022/11/16 03:54:18;;;;;;;2.15;1.10;;;;;;;10.73;100.00;97189.16;4138049;28;20221;-48
2022/11/16 03:56:20;;;;;;;0.95;0.95;;;;;;;10.77;100.00;97187.50;4151393;28;20232;-49
2022/11/16 03:58:21;;;;;;;1.40;0.93;;;;;;;10.70;100.00;97197.94;4138104;28;20213;-48
2022/11/16 04:00:23;;;;;;;0.82;0.82;;;;;;;10.68;100.00;97183.72;4137539;28;20260;-49
2022/11/16 04:02:25;;;;;;;0.75;0.75;;;;;;;10.63;100.00;97194.69;4138172;28;20202;-48
2022/11/16 04:25:34;;;;;;;0.80;0.80;;;;;;;10.43;100.00;97192.06;4135902;28;20216;-50
2022/11/16 04:29:58;;;;;;;0.88;0.88;;;;;;;10.46;100.00;97186.84;4137512;28;20252;-49
2022/11/16 04:39:01;;;;;;;0.68;0.68;;;;;;;10.45;100.00;97195.31;4135017;28;20211;-49
2022/11/16 04:41:02;;;;;;;0.80;0.80;;;;;;;10.44;100.00;97193.69;4151799;28;20212;-49
2022/11/16 04:43:04;;;;;;;0.70;0.70;;;;;;;10.41;100.00;97194.28;4151423;28;20227;-49
2022/11/16 04:47:27;;;;;;;0.60;0.60;;;;;;;10.46;100.00;97203.25;4132063;28;20216;-49
2022/11/16 04:49:29;;;;;;;0.60;0.60;;;;;;;10.51;100.00;97210.63;4129943;28;20244;-48
2022/11/16 04:51:30;;;;;;;0.85;0.85;;;;;;;10.50;100.00;97203.50;4138217;28;20631;-49
2022/11/16 04:53:32;;;;;;;0.90;0.90;;;;;;;10.49;100.00;97199.16;4138063;28;20321;-49
2022/11/16 04:55:34;;;;;;;0.65;0.65;;;;;;;10.45;100.00;97209.84;4132596;28;20569;-49
2022/11/16 04:57:36;;;;;;;0.90;0.60;;;;;;;10.45;100.00;97207.09;4148450;28;20240;-49
2022/11/16 04:59:37;;;;;;;0.80;0.80;;;;;;;10.51;100.00;97210.63;4135554;28;20289;-49
2022/11/16 05:03:59;;;;;;;0.70;0.70;;;;;;;10.58;100.00;97208.38;4130068;28;20753;-51
2022/11/16 05:06:01;;;;;;;1.67;0.88;;;;;;;10.64;100.00;97210.81;4130053;28;20735;-49
2022/11/16 05:08:03;;;;;;;0.70;0.70;;;;;;;10.51;100.00;97199.69;4133338;28;20734;-49
2022/11/16 05:10:05;;;;;;;1.30;1.20;;;;;;;10.51;100.00;97205.16;4152480;28;20228;-48
2022/11/16 05:12:09;;;;;;;0.82;0.80;;;;;;;10.51;100.00;97207.88;4147238;28;20207;-49
2022/11/16 05:14:11;;;;;;;0.82;0.82;;;;;;;10.53;100.00;97202.94;4136361;28;20304;-49
2022/11/16 05:16:12;;;;;;;0.90;0.90;;;;;;;10.57;100.00;97209.50;4135613;28;20727;-50
2022/11/16 05:18:14;;;;;;;0.90;0.90;;;;;;;10.52;100.00;97207.59;4132025;28;20248;-50
2022/11/16 05:22:38;;;;;;;1.55;0.80;;;;;;;10.54;100.00;97210.06;4136693;28;20236;-48
2022/11/16 05:24:40;;;;;;;0.90;0.90;;;;;;;10.47;100.00;97199.44;4135495;28;20209;-49
2022/11/16 05:26:41;;;;;;;1.00;0.90;;;;;;;10.50;100.00;97200.78;4134601;28;20622;-49
2022/11/16 05:28:43;;;;;;;0.90;0.90;;;;;;;10.48;100.00;97206.53;4150012;28;20237;-49
2022/11/16 05:30:45;;;;;;;0.90;0.90;;;;;;;10.54;100.00;97201.88;4134381;28;20209;-48
2022/11/16 05:32:46;;;;;;;1.73;1.10;;;;;;;10.38;100.00;97201.13;4139676;28;20419;-50
2022/11/16 05:34:48;;;;;;;1.10;1.00;;;;;;;10.34;100.00;97204.69;4130434;28;20253;-48
2022/11/16 05:36:50;;;;;;;1.10;1.10;;;;;;;10.43;100.00;97208.47;4150675;28;20219;-49
2022/11/16 05:38:51;;;;;;;0.90;0.90;;;;;;;10.41;100.00;97202.47;4126849;28;20245;-49
2022/11/16 05:40:56;;;;;;;1.10;1.10;;;;;;;10.41;100.00;97205.22;4129607;28;20300;-49
2022/11/16 05:42:58;;;;;;;2.13;1.48;;;;;;;10.45;100.00;97206.28;4137753;28;20707;-49
2022/11/16 05:45:00;;;;;;;0.93;0.93;;;;;;;10.38;100.00;97205.75;4145837;28;20209;-49
2022/11/16 05:47:04;;;;;;;2.92;1.17;;;;;;;10.39;100.00;97207.38;4135025;28;20304;-48
2022/11/16 05:49:06;;;;;;;1.52;1.08;;;;;;;10.31;100.00;97210.72;4149055;28;20233;-49
2022/11/16 05:51:08;;;;;;;1.20;1.20;;;;;;;10.36;100.00;97205.22;4134159;28;20209;-49
2022/11/16 05:53:10;;;;;;;1.73;1.35;;;;;;;10.37;100.00;97204.13;4132551;28;20233;-49
2022/11/16 05:55:11;;;;;;;1.58;0.82;;;;;;;10.28;100.00;97211.28;4135121;28;20217;-50
2022/11/16 05:57:14;;;;;;;1.10;1.00;;;;;;;10.24;100.00;97204.72;4133560;28;20292;-49
2022/11/16 05:59:17;;;;;;;1.20;0.93;;;;;;;10.37;100.00;97202.22;4138203;28;20288;-49
2022/11/16 06:01:19;;;;;;;1.05;1.05;;;;;;;10.20;100.00;97204.47;4135474;28;20201;-49
2022/11/16 06:03:21;;;;;;;1.85;1.08;;;;;;;10.18;100.00;97219.50;4148620;28;20693;-49
2022/11/16 06:05:23;;;;;;;1.10;1.00;;;;;;;10.19;100.00;97212.94;4134547;28;20238;-48
2022/11/16 06:07:24;;;;;;;2.45;1.23;;;;;;;10.19;100.00;97221.13;4134155;28;20202;-48
2022/11/16 06:09:26;;;;;;;1.20;0.85;;;;;;;10.19;100.00;97230.19;4134534;28;20230;-50
2022/11/16 06:11:28;;;;;;;1.83;1.10;;;;;;;10.23;100.00;97223.06;4131562;28;20229;-48
2022/11/16 06:13:36;;;;;;;5.05;1.63;;;;;;;10.25;100.00;97228.22;4138484;28;20240;-49
2022/11/16 06:15:38;;;;;;;1.10;0.80;;;;;;;10.24;100.00;97221.13;4119050;28;20453;-49
2022/11/16 06:17:40;;;;;;;3.40;1.40;;;;;;;10.20;100.00;97220.88;4149651;28;20211;-48
2022/11/16 06:19:42;;;;;;;0.90;0.90;;;;;;;10.28;100.00;97224.97;4144979;28;20607;-49
2022/11/16 06:21:44;;;;;;;2.17;1.13;;;;;;;10.28;100.00;97222.22;4129258;28;20300;-50
2022/11/16 06:23:56;;;;;;;1.35;1.27;;;;;;;10.27;100.00;97231.53;4146324;28;20243;-49
2022/11/16 06:26:12;;;;;;;2.22;1.75;;;;;;;10.29;100.00;97235.59;4138933;28;20209;-49
2022/11/16 06:28:20;;;;;;;5.80;1.67;;;;;;;10.25;100.00;97248.19;4137752;28;20205;-48
2022/11/16 06:30:22;;;;;;;1.17;1.15;;;;;;;10.26;100.00;97243.53;4142522;28;20681;-49
2022/11/16 06:32:24;;;;;;;3.33;1.30;;;;;;;10.26;100.00;97240.78;4140349;28;20247;-48
2022/11/16 06:34:26;;;;;;;1.63;1.52;;;;;;;10.27;100.00;97242.47;4139059;28;20205;-50
2022/11/16 06:36:41;;;;;;;1.35;1.20;;;;;;;10.26;100.00;97251.72;4136394;28;20202;-48
2022/11/16 06:38:43;;;;;;;1.50;1.40;;;;;;;10.24;100.00;97251.19;4138777;28;20214;-48
2022/11/16 06:40:57;;;;;;;1.60;1.50;;;;;;;10.23;100.00;97252.31;4132907;28;20209;-48
2022/11/16 06:43:08;;;;;;;1.52;1.42;;;;;;;10.23;100.00;97257.78;4138220;28;20987;-48
2022/11/16 06:45:35;;;;;;;2.33;1.35;;;;;;;10.20;100.00;97258.31;4134300;28;20209;-48
2022/11/16 06:47:54;;;;;;;1.58;1.40;;;;;;;10.22;100.00;97262.41;4139583;28;20217;-49
2022/11/16 06:49:56;;;;;;;1.85;1.75;;;;;;;10.22;100.00;97269.81;4137936;28;20209;-49
2022/11/16 06:51:58;;;;;;;1.17;1.10;;;;;;;10.14;100.00;97262.19;4139965;28;20208;-49
2022/11/16 06:54:00;;;;;;;1.67;1.45;;;;;;;10.03;100.00;97268.72;4130779;28;20745;-49
2022/11/16 06:56:11;;;;;;;1.30;1.20;;;;;;;10.08;100.00;97274.22;4141405;28;20231;-49
2022/11/16 06:58:16;;;;;;;1.48;1.38;;;;;;;10.05;100.00;97277.50;4132492;28;20948;-48
2022/11/16 07:00:18;;;;;;;1.30;1.20;;;;;;;10.01;100.00;97276.41;4152419;28;20240;-49
2022/11/16 07:02:22;;;;;;;1.58;1.20;;;;;;;9.98;100.00;97288.69;4151537;28;20212;-49
2022/11/16 07:04:24;;;;;;;2.38;1.65;;;;;;;10.00;100.00;97288.41;4149954;28;20213;-49
2022/11/16 07:06:26;;;;;;;3.67;1.38;;;;;;;9.99;100.00;97289.50;4143128;28;20206;-49
2022/11/16 07:08:31;;;;;;;1.88;1.00;;;;;;;9.94;100.00;97282.13;4138917;28;20202;-49
2022/11/16 07:10:42;;;;;;;1.30;1.20;;;;;;;9.78;100.00;97296.09;4137608;28;20229;-49
2022/11/16 07:12:44;;;;;;;2.10;1.50;;;;;;;9.84;100.00;97298.56;4137771;28;20242;-49
2022/11/16 07:14:46;;;;;;;1.20;1.13;;;;;;;9.83;100.00;97299.63;4133218;28;20213;-49
2022/11/16 07:16:48;;;;;;;1.25;1.15;;;;;;;9.84;100.00;97295.00;4148274;28;20295;-50
2022/11/16 07:18:56;;;;;;;3.42;1.65;;;;;;;9.75;100.00;97310.31;4133211;28;20219;-50
2022/11/16 07:20:58;;;;;;;4.10;1.92;;;;;;;9.71;100.00;97303.75;4137174;28;20227;-49
2022/11/16 07:23:01;;;;;;;1.80;1.40;;;;;;;9.77;100.00;97313.56;4136993;28;20750;-49
2022/11/16 07:25:09;;;;;;;1.50;1.40;;;;;;;9.73;100.00;97307.84;4130261;28;20723;-49
2022/11/16 07:27:10;;;;;;;6.05;1.45;;;;;;;9.62;100.00;97303.47;4125921;28;20309;-48
2022/11/16 07:29:14;;;;;;;1.70;1.00;;;;;;;9.61;100.00;97306.50;4141515;28;20628;-48
2022/11/16 07:31:15;;;;;;;1.98;1.67;;;;;;;9.65;100.00;97294.75;4138481;28;20300;-48
2022/11/16 07:33:17;;;;;;;3.05;1.40;;;;;;;9.73;100.00;97302.38;4133283;28;20245;-48
2022/11/16 07:35:19;;;;;;;3.72;2.65;;;;;;;9.63;100.00;97304.28;4134805;28;20293;-49
2022/11/16 07:37:20;;;;;;;3.80;1.85;;;;;;;9.68;100.00;97309.75;4149098;28;20307;-48
2022/11/16 07:39:22;;;;;;;2.85;1.77;;;;;;;9.63;100.00;97315.22;4134767;28;20316;-48
2022/11/16 07:41:24;;;;;;;2.30;1.45;;;;;;;9.60;100.00;97318.47;4133462;28;20210;-49
2022/11/16 07:43:34;;;;;;;3.95;1.60;;;;;;;9.58;100.00;97320.66;4134104;28;20777;-49
2022/11/16 07:45:35;;;;;;;3.72;1.80;;;;;;;9.49;100.00;97322.31;4120478;28;20225;-49
2022/11/16 07:47:37;;;;;;;1.42;1.13;;;;;;;9.56;100.00;97322.88;4135504;28;20210;-49
2022/11/16 07:49:39;;;;;;;2.30;1.30;;;;;;;9.57;100.00;97321.78;4133381;28;20241;-49
2022/11/16 07:51:41;;;;;;;2.42;1.92;;;;;;;9.73;100.00;97326.13;4148020;28;20251;-49
2022/11/16 07:53:43;;;;;;;2.60;2.03;;;;;;;9.74;100.00;97336.78;4135024;28;20230;-49
2022/11/16 07:55:51;;;;;;;1.75;1.33;;;;;;;9.80;100.00;97334.88;4152098;28;20248;-50
2022/11/16 07:57:53;;;;;;;6.15;2.30;;;;;;;9.66;100.00;97333.78;4128781;28;20296;-49
2022/11/16 07:59:55;;;;;;;2.88;2.50;;;;;;;9.96;100.00;97337.31;4136473;28;20324;-49
2022/11/16 08:01:57;;;;;;;4.47;1.95;;;;;;;10.17;100.00;97335.41;4136291;28;20208;-48
2022/11/16 08:04:00;;;;;;;6.78;2.38;;;;;;;10.30;100.00;97334.84;4137804;28;20227;-50
2022/11/16 08:06:06;;;;;;;4.32;2.40;;;;;;;10.38;100.00;97329.63;4139799;28;20232;-49
2022/11/16 08:08:08;;;;;;;3.45;2.10;;;;;;;10.37;100.00;97340.84;4135650;28;20255;-49
2022/11/16 08:10:10;;;;;;;3.10;2.25;;;;;;;10.30;100.00;97340.31;4134789;28;20715;-50
2022/11/16 08:12:12;;;;;;;4.63;2.85;;;;;;;10.27;100.00;97346.34;4138845;28;20217;-50
2022/11/16 08:14:14;;;;;;;4.80;3.85;;;;;;;10.33;100.00;97345.22;4138562;28;20699;-50
2022/11/16 08:16:19;;;;;;;4.18;2.63;;;;;;;10.68;100.00;97342.38;4132408;28;20754;-49
2022/11/16 08:18:20;;;;;;;8.15;2.92;;;;;;;10.78;100.00;97349.44;4138888;28;20209;-49
2022/11/16 08:20:22;;;;;;;4.10;2.25;;;;;;;10.99;100.00;97353.75;4135239;28;20718;-48
2022/11/16 08:22:24;;;;;;;3.60;2.50;;;;;;;11.25;100.00;97349.75;4131885;28;20702;-49
2022/11/16 08:24:26;;;;;;;3.17;2.05;;;;;;;11.44;100.00;97356.22;4140607;28;20224;-50
2022/11/16 08:26:28;;;;;;;2.85;1.85;;;;;;;11.35;100.00;97349.72;4133193;28;20575;-49
2022/11/16 08:28:30;;;;;;;2.63;1.90;;;;;;;11.30;100.00;97347.00;4139900;28;20205;-49
2022/11/16 08:30:32;;;;;;;1.83;1.20;;;;;;;11.31;100.00;97353.31;4138056;28;20225;-50
2022/11/16 08:32:34;;;;;;;1.02;1.00;;;;;;;11.19;100.00;97356.38;4136729;28;20772;-50
2022/11/16 08:34:36;;;;;;;0.80;0.80;;;;;;;11.13;100.00;97357.50;4140101;28;20245;-50
2022/11/16 08:36:38;;;;;;;2.58;1.25;;;;;;;11.20;100.00;97347.06;4150355;28;21903;-49
2022/11/16 08:38:39;;;;;;;1.20;1.00;;;;;;;11.45;100.00;97352.38;4136779;28;20220;-50
2022/11/16 08:40:42;;;;;;;1.23;1.08;;;;;;;11.30;100.00;97355.22;4134882;28;20220;-50
2022/11/16 08:42:44;;;;;;;1.65;1.20;;;;;;;11.95;100.00;97354.78;4152322;28;20325;-50
2022/11/16 08:44:45;;;;;;;1.83;1.30;;;;;;;12.31;100.00;97361.56;4136729;28;20671;-49
2022/11/16 08:46:47;;;;;;;2.88;1.90;;;;;;;12.24;100.00;97357.53;4120804;28;20358;-50
2022/11/16 08:48:54;;;;;;;3.83;1.48;;;;;;;11.78;100.00;97359.84;4131607;28;20619;-49
2022/11/16 08:51:02;;;;;;;2.10;1.67;;;;;;;11.58;100.00;97365.47;4131005;28;20253;-50
2022/11/16 08:53:18;;;;;;;1.10;1.00;;;;;;;11.28;100.00;97359.31;4133799;28;20287;-50
2022/11/16 08:55:19;;;;;;;2.35;2.05;;;;;;;11.19;100.00;97366.50;4134542;28;20236;-49
2022/11/16 08:57:22;;;;;;;3.03;1.90;;;;;;;11.00;100.00;97357.28;4152437;28;20201;-48
2022/11/16 08:59:24;;;;;;;3.58;1.48;;;;;;;11.03;100.00;97368.50;4151054;28;20219;-49
2022/11/16 09:01:28;;;;;;;1.35;1.10;;;;;;;11.04;100.00;97364.66;4138456;28;20212;-49
2022/11/16 09:03:30;;;;;;;1.65;1.15;;;;;;;11.05;100.00;97370.97;4138977;28;20681;-49
2022/11/16 09:05:31;;;;;;;1.33;1.10;;;;;;;11.02;100.00;97372.34;4138439;28;20205;-49
2022/11/16 09:07:33;;;;;;;1.25;0.98;;;;;;;11.52;100.00;97366.56;4152490;28;20263;-49
2022/11/16 09:09:35;;;;;;;1.48;1.30;;;;;;;11.97;100.00;97368.22;4132411;28;20300;-51
2022/11/16 09:11:37;;;;;;;2.80;1.40;;;;;;;12.13;100.00;97372.44;4137601;28;20607;-49
2022/11/16 09:13:39;;;;;;;1.80;1.30;;;;;;;12.04;100.00;97374.97;4137245;28;20233;-49
2022/11/16 09:15:41;;;;;;;4.35;3.63;;;;;;;11.94;100.00;97369.59;4135992;28;20211;-50
2022/11/16 09:17:42;;;;;;;2.72;2.10;;;;;;;11.64;100.00;97375.28;4135783;28;20210;-49
2022/11/16 09:19:44;;;;;;;2.58;1.73;;;;;;;11.69;100.00;97372.53;4136810;28;20225;-50
2022/11/16 09:21:46;;;;;;;2.20;1.55;;;;;;;11.72;100.00;97377.41;4151017;28;21154;-51
2022/11/16 09:23:48;;;;;;;4.25;3.38;;;;;;;11.56;100.00;97373.13;4131988;28;20313;-49
2022/11/16 09:25:50;;;;;;;3.17;2.40;;;;;;;11.35;100.00;97377.09;4138136;28;20301;-49
2022/11/16 09:27:54;;;;;;;1.85;1.58;;;;;;;11.42;100.00;97372.13;4137440;28;20251;-49
2022/11/16 09:29:56;;;;;;;3.65;1.40;;;;;;;11.53;100.00;97370.13;4140733;28;20283;-49
2022/11/16 09:31:58;;;;;;;2.10;1.70;;;;;;;11.41;100.00;97365.00;4132213;28;20300;-48
2022/11/16 09:34:01;;;;;;;2.60;2.10;;;;;;;11.27;100.00;97369.47;4137862;28;21451;-49
2022/11/16 09:36:06;;;;;;;2.50;1.60;;;;;;;11.34;100.00;97370.00;4138952;28;20668;-50
2022/11/16 09:38:10;;;;;;;3.08;2.75;;;;;;;11.28;100.00;97365.63;4134983;28;20209;-48
2022/11/16 09:40:22;;;;;;;2.65;1.67;;;;;;;11.04;100.00;97361.91;4133423;28;20206;-48
2022/11/16 09:42:43;;;;;;;2.33;1.73;;;;;;;11.17;100.00;97361.31;4147265;28;20293;-49
2022/11/16 09:45:03;;;;;;;3.90;1.92;;;;;;;11.60;100.00;97374.25;4130041;28;20240;-49
2022/11/16 09:47:11;;;;;;;1.85;1.00;;;;;;;11.65;100.00;97370.63;4141408;28;20217;-48
2022/11/16 09:49:23;;;;;;;1.63;1.52;;;;;;;11.68;100.00;97365.41;4133032;28;20296;-49
2022/11/16 09:51:28;;;;;;;3.63;1.80;;;;;;;11.75;100.00;97363.16;4118373;28;20988;-49
2022/11/16 09:53:32;;;;;;;3.65;2.08;;;;;;;11.94;100.00;97358.63;4140760;28;20650;-49
2022/11/16 09:55:50;;;;;;;2.95;1.55;;;;;;;11.78;100.00;97354.34;4130661;28;20213;-49
2022/11/16 09:57:55;;;;;;;1.35;1.33;;;;;;;11.88;100.00;97351.53;4138940;28;20216;-48
2022/11/16 10:00:12;;;;;;;1.52;1.30;;;;;;;12.27;100.00;97357.78;4147639;28;20295;-48
2022/11/16 10:02:14;;;;;;;1.30;1.20;;;;;;;12.21;100.00;97358.09;4138285;28;20206;-49
2022/11/16 10:04:38;;;;;;;2.40;1.70;;;;;;;12.45;100.00;97365.25;4140965;28;20237;-49
2022/11/16 10:06:48;;;;;;;1.52;1.33;;;;;;;11.77;100.00;97357.41;4138990;28;20328;-49
2022/11/16 10:08:52;;;;;;;1.98;1.20;;;;;;;11.80;100.00;97354.91;4135913;28;20205;-49
2022/11/16 10:11:07;;;;;;;1.33;1.20;;;;;;;11.84;100.00;97358.69;4117570;28;20240;-50
2022/11/16 10:13:42;;;;;;;1.52;1.23;;;;;;;11.92;100.00;97354.53;4150463;28;20279;-48
2022/11/16 10:15:52;;;;;;;5.18;1.05;;;;;;;12.03;100.00;97356.09;4137865;28;20216;-49
2022/11/16 10:18:22;;;;;;;2.80;1.10;;;;;;;12.33;100.00;97347.56;4135978;28;20244;-49
2022/11/16 10:20:38;;;;;;;1.67;1.13;;;;;;;12.38;100.00;97331.84;4136152;28;20216;-49
2022/11/16 10:23:12;;;;;;;3.95;0.90;;;;;;;12.54;100.00;97338.00;4127294;28;20238;-50
2022/11/16 10:25:19;;;;;;;1.17;0.63;;;;;;;12.49;100.00;97333.41;4133072;28;20292;-50